Flight Track Log - Related Links

Times and Time Zones

All times are in EDT time to prevent confusion due to time zone crossing. See the AMF1026 flight status page for this flight to view local times or setup timezone preferences in your user account.

Time Position Orientation Groundspeed Altitude Reporting Facility
EDT Latitude Longitude Course Direction KTS MPH feet Rate Location/Type
Mon 09:04:47 PM 42.7189 -73.8039 253° West 142 163 1,800  Level Boston Center
Mon 09:05:48 PM 42.7083 -73.8497 253° West 149 171 3,600 1,824 Climbing Boston Center
Mon 09:06:52 PM 42.7003 -73.9058 259° West 143 165 5,600 1,824 Climbing Boston Center
Mon 09:07:53 PM 42.6878 -73.9611 253° West 143 165 7,400 1,366 Climbing Boston Center
Mon 09:08:55 PM 42.6714 -74.0172 248° West 157 181 8,400 1,171 Climbing Boston Center
Mon 09:09:56 PM 42.6536 -74.0817 249° West 176 203 9,800 1,377 Climbing Boston Center
Mon 09:10:57 PM 42.6442 -74.1464 259° West 176 203 11,200 1,525 Climbing Boston Center
Mon 09:11:58 PM 42.6269 -74.2136 251° West 177 204 12,900 1,438 Climbing Boston Center
Mon 09:12:58 PM 42.6131 -74.2750 253° West 173 199 14,100 1,250 Climbing Boston Center
Mon 09:13:58 PM 42.5983 -74.3328 251° West 166 191 15,400 927 Climbing Boston Center
Mon 09:15:01 PM 42.5847 -74.3942 253° West 170 196 16,000 295 Climbing Boston Center
Mon 09:16:00 PM 42.5633 -74.4736 250° West 211 243 16,000  Level Boston Center
Mon 09:17:04 PM 42.5453 -74.5528 253° West 219 252 16,000  Level Boston Center
Mon 09:18:04 PM 42.5281 -74.6361 254° West 229 264 16,000  Level Boston Center
Mon 09:19:06 PM 42.5114 -74.7208 255° West 230 265 16,000  Level Boston Center
Mon 09:20:07 PM 42.4958 -74.8092 257° West 232 267 16,000  Level Boston Center
Mon 09:21:08 PM 42.4808 -74.8933 256° West 232 267 16,000  Level Boston Center
Mon 09:22:09 PM 42.4658 -74.9797 257° West 235 270 16,000  Level Boston Center
Mon 09:23:09 PM 42.4489 -75.0642 255° West 234 269 16,000  Level Boston Center
Mon 09:24:10 PM 42.4292 -75.1472 252° West 234 269 16,000  Level Boston Center
Mon 09:25:13 PM 42.4228 -75.2311 264° West 227 261 16,000  Level Boston Center
Mon 09:26:14 PM 42.4292 -75.3158 276° West 227 261 16,000  Level Boston Center
Mon 09:27:14 PM 42.4142 -75.3958 256° West 220 253 16,000  Level Boston Center
Mon 09:28:15 PM 42.3767 -75.4681 235° Southwest 231 266 16,000  Level Boston Center
Mon 09:29:17 PM 42.3278 -75.5272 222° Southwest 234 269 16,000  Level Boston Center
Mon 09:30:18 PM 42.2631 -75.5911 216° Southwest 239 275 16,000  Level Boston Center
Mon 09:31:18 PM 42.2158 -75.6511 223° Southwest 238 274 16,000  Level Boston Center
Mon 09:32:19 PM 42.2006 -75.7408 257° West 229 264 16,000  Level Boston Center
Mon 09:33:23 PM 42.1889 -75.8222 259° West 230 265 16,000  Level Boston Center
Mon 09:34:23 PM 42.1803 -75.9064 262° West 229 264 16,000  Level Boston Center
Mon 09:35:24 PM 42.1714 -75.9889 262° West 227 261 16,000  Level Boston Center
Mon 09:36:25 PM 42.1628 -76.0747 262° West 228 262 16,000  Level Boston Center
Mon 09:37:10 PM 42.1564 -76.1481 263° West 229 264 16,000  Level Cleveland Center
Mon 09:38:12 PM 42.1294 -76.2267 245° Southwest 233 268 16,000  Level Cleveland Center
Mon 09:38:50 PM 42.1097 -76.2833 245° Southwest 241 277 16,000  Level New York Center
Mon 09:39:50 PM 42.0833 -76.3594 245° Southwest 241 277 16,000  Level New York Center
Mon 09:40:50 PM 42.0567 -76.4381 245° Southwest 241 277 16,000  Level New York Center
Mon 09:41:50 PM 42.0300 -76.5169 246° West 236 272 16,000  Level New York Center
Mon 09:42:50 PM 42.0014 -76.5925 243° Southwest 231 266 16,000  Level New York Center
Mon 09:43:50 PM 41.9744 -76.6739 246° West 231 266 16,000  Level New York Center
Mon 09:44:21 PM 41.9619 -76.7100 245° Southwest 232 267 16,000  Level Cleveland Center
Mon 09:45:22 PM 41.9342 -76.7886 245° Southwest 232 267 16,000  Level Cleveland Center
Mon 09:46:24 PM 41.9056 -76.8656 243° Southwest 232 267 16,000  Level Cleveland Center
Mon 09:47:25 PM 41.8761 -76.9464 244° Southwest 234 269 16,000 -49 Level Cleveland Center
Mon 09:48:27 PM 41.8481 -77.0261 245° Southwest 235 270 15,900 -49 Descending Cleveland Center
Mon 09:49:28 PM 41.8211 -77.1053 245° Southwest 235 270 15,900  Level Cleveland Center
Mon 09:50:30 PM 41.7942 -77.1844 245° Southwest 235 270 15,900  Level Cleveland Center
Mon 09:51:31 PM 41.7669 -77.2658 246° West 235 270 15,900  Level Cleveland Center
Mon 09:52:33 PM 41.7350 -77.3583 245° Southwest 234 269 15,900  Level Cleveland Center
Mon 09:53:34 PM 41.7111 -77.4400 249° West 234 269 15,900 49 Level Cleveland Center
Mon 09:54:35 PM 41.6917 -77.5108 250° West 233 268 16,000 48 Climbing Cleveland Center
Mon 09:55:38 PM 41.6614 -77.6069 247° West 233 268 16,000  Level Cleveland Center
Mon 09:56:38 PM 41.6397 -77.6867 250° West 233 268 16,000  Level Cleveland Center
Mon 09:57:40 PM 41.6139 -77.7639 246° West 232 267 16,000  Level Cleveland Center
Mon 09:58:41 PM 41.5886 -77.8453 247° West 235 270 16,000  Level Cleveland Center
Mon 09:59:43 PM 41.5631 -77.9272 247° West 236 272 16,000  Level Cleveland Center
Mon 10:00:44 PM 41.5378 -78.0092 248° West 240 276 16,000  Level Cleveland Center
Mon 10:01:46 PM 41.5147 -78.0914 249° West 240 276 16,000  Level Cleveland Center
Mon 10:02:47 PM 41.4861 -78.1897 249° West 240 276 16,000  Level Cleveland Center
Mon 10:03:49 PM 41.4608 -78.2697 247° West 239 275 16,000  Level Cleveland Center
Mon 10:04:50 PM 41.4356 -78.3486 247° West 238 274 16,000  Level Cleveland Center
Mon 10:05:52 PM 41.4103 -78.4278 247° West 237 273 16,000  Level Cleveland Center
Mon 10:06:53 PM 41.3833 -78.5067 246° West 238 274 16,000  Level Cleveland Center
Mon 10:07:55 PM 41.3556 -78.5972 248° West 238 274 16,000  Level Cleveland Center
Mon 10:08:56 PM 41.3308 -78.6767 248° West 236 272 16,000  Level Cleveland Center
Mon 10:09:58 PM 41.3042 -78.7556 246° West 236 272 16,000  Level Cleveland Center
Mon 10:10:59 PM 41.2783 -78.8342 246° West 236 272 16,000  Level Cleveland Center
Mon 10:12:00 PM 41.2539 -78.9144 248° West 238 274 16,000  Level Cleveland Center
Mon 10:13:02 PM 41.2286 -78.9914 246° West 230 265 16,000  Level Cleveland Center
Mon 10:14:03 PM 41.1992 -79.0872 248° West 231 266 16,000  Level Cleveland Center
Mon 10:15:05 PM 41.1750 -79.1675 248° West 232 267 16,000  Level Cleveland Center
Mon 10:16:06 PM 41.1506 -79.2467 248° West 233 268 16,000  Level Cleveland Center
Mon 10:17:08 PM 41.1267 -79.3292 249° West 235 270 16,000  Level Cleveland Center
Mon 10:18:09 PM 41.1011 -79.4069 246° West 231 266 16,000  Level Cleveland Center
Mon 10:19:11 PM 41.0756 -79.4853 247° West 231 266 16,000  Level Cleveland Center
Mon 10:20:13 PM 41.0492 -79.5642 246° West 230 265 16,000  Level Cleveland Center
Mon 10:21:14 PM 41.0233 -79.6422 246° West 231 266 16,000  Level Cleveland Center
Mon 10:22:15 PM 40.9986 -79.7219 248° West 231 266 16,000  Level Cleveland Center
Mon 10:23:17 PM 40.9650 -79.8169 245° Southwest 236 272 16,000  Level Cleveland Center
Mon 10:24:18 PM 40.9372 -79.8947 245° Southwest 235 270 16,000  Level Cleveland Center
Mon 10:25:19 PM 40.9103 -79.9717 245° Southwest 232 267 16,000  Level Cleveland Center
Mon 10:26:21 PM 40.8811 -80.0508 244° Southwest 236 272 16,000  Level Cleveland Center
Mon 10:27:22 PM 40.8503 -80.1389 245° Southwest 237 273 16,000  Level Cleveland Center
Mon 10:28:24 PM 40.8225 -80.2158 245° Southwest 235 270 16,000  Level Cleveland Center
Mon 10:29:25 PM 40.7872 -80.2900 238° Southwest 239 275 16,000  Level Cleveland Center
Mon 10:30:26 PM 40.7544 -80.3592 238° Southwest 238 274 16,000  Level Cleveland Center
Mon 10:31:28 PM 40.7169 -80.4358 237° Southwest 245 282 16,000  Level Cleveland Center
Mon 10:32:29 PM 40.6722 -80.5225 236° Southwest 244 281 16,000  Level Cleveland Center
Mon 10:33:30 PM 40.6342 -80.5992 237° Southwest 245 282 16,000  Level Cleveland Center
Mon 10:34:31 PM 40.5958 -80.6728 236° Southwest 243 280 16,000  Level Cleveland Center
Mon 10:35:33 PM 40.5614 -80.7381 235° Southwest 244 281 16,000  Level Cleveland Center
Mon 10:36:34 PM 40.5228 -80.8108 235° Southwest 244 281 16,000  Level Cleveland Center
Mon 10:37:35 PM 40.4839 -80.8831 235° Southwest 243 280 16,000  Level Cleveland Center
Mon 10:38:36 PM 40.4378 -80.9714 236° Southwest 244 281 16,000  Level Cleveland Center
Mon 10:39:38 PM 40.3986 -81.0436 235° Southwest 244 281 16,000  Level Cleveland Center
Mon 10:40:39 PM 40.3567 -81.1175 233° Southwest 251 289 16,000  Level Cleveland Center
Mon 10:41:40 PM 40.3186 -81.1906 236° Southwest 246 283 16,000  Level Cleveland Center
Mon 10:42:41 PM 40.2789 -81.2631 234° Southwest 246 283 16,000  Level Cleveland Center
Mon 10:43:43 PM 40.2400 -81.3356 235° Southwest 245 282 16,000  Level Cleveland Center
Mon 10:44:44 PM 40.2011 -81.4100 236° Southwest 248 285 16,000  Level Cleveland Center
Mon 10:45:45 PM 40.1711 -81.4906 244° Southwest 247 284 16,000  Level Cleveland Center
Mon 10:46:46 PM 40.1447 -81.5725 247° West 247 284 16,000  Level Cleveland Center
Mon 10:47:48 PM 40.1136 -81.6733 248° West 248 285 16,000  Level Cleveland Center
Mon 10:48:49 PM 40.0897 -81.7489 248° West 248 285 16,000  Level Cleveland Center
Mon 10:49:50 PM 40.0625 -81.8333 247° West 250 288 16,000  Level Cleveland Center
Mon 10:50:51 PM 40.0381 -81.9181 249° West 251 289 16,000  Level Cleveland Center
Mon 10:51:52 PM 40.0106 -82.0006 247° West 250 288 16,000  Level Cleveland Center
Mon 10:52:53 PM 39.9811 -82.1022 249° West 250 288 16,000  Level Cleveland Center
Mon 10:53:54 PM 39.9517 -82.1858 245° Southwest 252 290 16,000  Level Cleveland Center
Mon 10:54:56 PM 39.9222 -82.2694 245° Southwest 253 291 16,000  Level Cleveland Center
Mon 10:55:57 PM 39.8928 -82.3517 245° Southwest 252 290 16,000 -49 Level Cleveland Center
Mon 10:56:58 PM 39.8636 -82.4342 245° Southwest 252 290 15,900 -49 Descending Cleveland Center
Mon 10:57:59 PM 39.8364 -82.5183 247° West 253 291 15,900  Level Cleveland Center
Mon 10:59:00 PM 39.8075 -82.5994 245° Southwest 252 290 15,900  Level Cleveland Center
Mon 11:00:01 PM 39.7769 -82.6803 244° Southwest 250 288 15,900  Level Cleveland Center
Mon 11:01:02 PM 39.7464 -82.7631 244° Southwest 251 289 15,900  Level Cleveland Center
Mon 11:02:28 PM 39.7014 -82.8772 243° Southwest 250 288 15,900  Level Indianapolis Center
Mon 11:03:29 PM 39.6692 -82.9581 243° Southwest 250 288 15,900 -60 Level Indianapolis Center
Mon 11:04:08 PM 39.6422 -83.0267 243° Southwest 252 290 15,800 -231 Descending Indianapolis Center
Mon 11:04:21 PM 39.6389 -83.0397 252° West 252 290 15,700 -904 Descending Indianapolis Center
Mon 11:05:21 PM 39.6006 -83.1314 242° Southwest 269 310 14,700 -845 Descending Indianapolis Center
Mon 11:05:32 PM 39.5967 -83.1428 246° West 257 296 14,700 -590 Level Indianapolis Center
Mon 11:06:22 PM 39.5708 -83.2214 247° West 273 314 14,100 -689 Descending Indianapolis Center
Mon 11:06:33 PM 39.5653 -83.2328 238° Southwest 266 306 14,000 -1,200 Descending Indianapolis Center
Mon 11:07:22 PM 39.5408 -83.3117 248° West 275 316 12,900 -1,161 Descending Indianapolis Center
Mon 11:07:35 PM 39.5347 -83.3239 237° Southwest 270 311 12,800 -892 Descending Indianapolis Center
Mon 11:08:36 PM 39.5050 -83.4183 248° West 276 318 11,800 -936 Descending Indianapolis Center
Mon 11:09:24 PM 39.4786 -83.4939 246° West 260 299 11,100 -885 Descending Indianapolis Center
Mon 11:09:37 PM 39.4744 -83.5064 247° West 272 313 10,900 -1,500 Descending Indianapolis Center
Mon 11:10:24 PM 39.4489 -83.5811 246° West 273 314 9,600 -1,452 Descending Indianapolis Center
Mon 11:10:39 PM 39.4422 -83.5939 236° Southwest 269 310 9,400 -885 Descending Indianapolis Center
Mon 11:11:25 PM 39.4125 -83.6700 243° Southwest 276 318 8,700 -787 Descending Indianapolis Center
Mon 11:11:40 PM 39.4064 -83.6839 240° Southwest 276 318 8,600 -553 Descending Indianapolis Center
Mon 11:12:41 PM 39.3761 -83.7692 245° Southwest 267 307 8,000 -293 Descending Indianapolis Center
Mon 11:13:43 PM 39.3444 -83.8550 245° Southwest 266 306 8,000  Level Indianapolis Center
Mon 11:14:44 PM 39.3133 -83.9386 244° Southwest 264 304 8,000  Level Indianapolis Center
Mon 11:15:46 PM 39.2744 -84.0361 243° Southwest 260 299 8,000  Level Indianapolis Center
Mon 11:16:47 PM 39.2422 -84.1161 243° Southwest 254 292 8,000  Level Indianapolis Center
Mon 11:17:48 PM 39.2128 -84.1986 245° Southwest 254 292 8,000  Level Indianapolis Center
Mon 11:18:50 PM 39.1817 -84.2800 244° Southwest 254 292 8,000  Level Indianapolis Center
Mon 11:19:51 PM 39.1486 -84.3581 241° Southwest 254 292 8,000  Level Indianapolis Center
Mon 11:20:52 PM 39.1183 -84.4403 245° Southwest 254 292 8,000 -244 Level Indianapolis Center
Mon 11:21:54 PM 39.0758 -84.5103 232° Southwest 253 291 7,500 -488 Descending Indianapolis Center
Mon 11:22:55 PM 39.0100 -84.5439 202° Southwest 251 289 7,000 -738 Descending Indianapolis Center
Mon 11:23:56 PM 38.9603 -84.5622 196° South 200 230 6,000 -1,426 Descending Indianapolis Center
Mon 11:24:57 PM 38.9058 -84.5711 187° South 185 213 4,100 -1,655 Descending Indianapolis Center
Mon 11:25:52 PM 38.9333 -84.6500 294° West 188 216 2,800 -1,096 Descending Cincinnati TRACON
Mon 11:26:52 PM 38.9667 -84.6500 360° North 147 169 2,000 -800 Descending Cincinnati TRACON
Mon 11:27:52 PM 39.0167 -84.6500 360° North 139 160 1,200 -800 Descending Cincinnati TRACON

Login

Don't have an account? Register now (free) for customized features, flight alerts, and more!